createdAt,value
2023-04-19T00:02:53.318Z,12.22
2023-04-19T00:09:13.158Z,12.18
2023-04-19T00:15:36.217Z,12.16
2023-04-19T00:21:56.172Z,12.14
2023-04-19T00:28:19.295Z,12.09
2023-04-19T00:34:39.208Z,12.06
2023-04-19T00:41:02.239Z,12.01
2023-04-19T00:47:22.153Z,11.96
2023-04-19T00:53:45.266Z,11.93
2023-04-19T01:00:05.194Z,11.9
2023-04-19T01:06:28.271Z,11.87
2023-04-19T01:12:48.275Z,11.77
2023-04-19T01:19:11.194Z,11.62
2023-04-19T01:25:31.174Z,11.53
2023-04-19T01:31:54.248Z,11.41
2023-04-19T01:38:14.178Z,11.36
2023-04-19T01:44:37.290Z,11.33
2023-04-19T01:50:57.240Z,11.29
2023-04-19T01:57:20.176Z,11.25
2023-04-19T02:03:40.420Z,11.21
2023-04-19T02:10:03.194Z,11.19
2023-04-19T02:16:23.236Z,11.2
2023-04-19T02:22:46.192Z,11.25
2023-04-19T02:29:07.005Z,11.26
2023-04-19T02:35:29.207Z,11.22
2023-04-19T02:41:49.234Z,11.14
2023-04-19T02:48:12.285Z,11.04
2023-04-19T02:54:32.175Z,11.01
2023-04-19T03:00:55.206Z,11.03
2023-04-19T03:07:15.204Z,11.07
2023-04-19T03:13:38.180Z,11.13
2023-04-19T03:19:58.198Z,11.19
2023-04-19T03:43:22.169Z,11.22
2023-04-19T03:49:45.179Z,11.25
2023-04-19T03:56:05.192Z,11.3
2023-04-19T04:02:28.329Z,11.33
2023-04-19T04:08:48.185Z,11.35
2023-04-19T04:15:11.157Z,11.36
2023-04-19T04:21:31.197Z,11.34
2023-04-19T04:27:54.145Z,11.32
2023-04-19T04:34:14.272Z,11.33
2023-04-19T04:40:37.204Z,11.3
2023-04-19T04:46:57.181Z,11.22
2023-04-19T04:53:20.183Z,11.19
2023-04-19T04:59:40.286Z,11.21
2023-04-19T05:06:03.201Z,11.26
2023-04-19T05:12:23.242Z,11.3
2023-04-19T05:18:46.191Z,11.37
2023-04-19T05:25:06.201Z,11.4
2023-04-19T05:31:29.219Z,11.43
2023-04-19T05:37:49.272Z,11.47
2023-04-19T05:44:12.199Z,11.5
2023-04-19T05:50:32.220Z,11.49
2023-04-19T05:56:55.193Z,11.52
2023-04-19T06:03:15.345Z,11.6
2023-04-19T06:09:38.187Z,11.65
2023-04-19T06:15:58.293Z,11.67
2023-04-19T06:22:21.164Z,11.72
2023-04-19T06:28:41.187Z,11.82
2023-04-19T06:35:04.263Z,11.93
2023-04-19T06:41:24.170Z,11.96
2023-04-19T06:47:47.264Z,12.02
2023-04-19T06:54:07.198Z,12.18
2023-04-19T07:00:30.181Z,12.3
2023-04-19T07:06:50.249Z,12.41
2023-04-19T07:13:13.251Z,12.57
2023-04-19T07:19:33.238Z,12.72
2023-04-19T07:25:56.200Z,12.8
2023-04-19T07:32:16.246Z,12.92
2023-04-19T07:38:39.200Z,13.12
2023-04-19T07:44:59.145Z,13.36
2023-04-19T07:51:22.235Z,13.58
2023-04-19T07:57:42.162Z,13.75
2023-04-19T08:04:05.397Z,13.86
2023-04-19T08:10:25.379Z,13.77
2023-04-19T08:23:18.511Z,14.05
2023-04-19T08:29:31.419Z,14.27
2023-04-19T08:35:51.156Z,14.48
2023-04-19T08:48:34.366Z,15.01
2023-04-19T09:12:15.222Z,15.76
2023-04-19T09:18:45.629Z,15.86
2023-04-19T09:31:35.654Z,16.08
2023-04-19T09:38:01.686Z,16.27
2023-04-19T09:44:21.714Z,16.54
2023-04-19T09:50:27.409Z,16.76
2023-04-19T09:56:47.189Z,16.87
2023-04-19T10:03:07.234Z,16.88
2023-04-19T10:09:30.438Z,16.95
2023-04-19T10:15:53.777Z,17.14
2023-04-19T10:22:13.153Z,17.33
2023-04-19T10:28:33.205Z,17.41
2023-04-19T10:34:56.211Z,17.52
2023-04-19T10:41:17.708Z,17.68
2023-04-19T10:47:39.319Z,17.93
2023-04-19T10:53:59.165Z,18
2023-04-19T11:00:22.164Z,18.23
2023-04-19T11:06:42.213Z,18.33
2023-04-19T11:13:05.163Z,18.34
2023-04-19T11:19:25.219Z,18.56
2023-04-19T11:25:48.199Z,18.62
2023-04-19T11:32:08.193Z,18.7
2023-04-19T11:38:31.197Z,18.73
2023-04-19T11:44:51.239Z,18.76
2023-04-19T11:51:14.213Z,19
2023-04-19T11:57:34.177Z,19.24
2023-04-19T12:03:57.671Z,19.06
2023-04-19T12:10:17.156Z,19.03
2023-04-19T12:16:40.215Z,19.15
2023-04-19T12:23:00.221Z,19.45
2023-04-19T12:29:23.155Z,19.61
2023-04-19T12:35:43.217Z,19.81
2023-04-19T12:42:06.337Z,20
2023-04-19T12:48:26.158Z,20.12
2023-04-19T12:54:49.170Z,20.11
2023-04-19T13:01:09.273Z,20.24
2023-04-19T13:07:32.184Z,20.33
2023-04-19T13:13:52.149Z,20.37
2023-04-19T13:20:15.205Z,20.59
2023-04-19T13:26:35.182Z,20.58
2023-04-19T13:32:58.168Z,20.51
2023-04-19T13:39:18.328Z,20.6
2023-04-19T13:45:41.156Z,20.22
2023-04-19T13:52:01.159Z,19.97
2023-04-19T13:58:24.198Z,20.07
2023-04-19T14:04:44.209Z,19.79
2023-04-19T14:11:07.182Z,19.78
2023-04-19T14:17:27.278Z,19.92
2023-04-19T14:23:50.167Z,19.98
2023-04-19T14:30:10.166Z,20.07
2023-04-19T14:36:33.184Z,19.77
2023-04-19T14:59:38.709Z,19.02
2023-04-19T15:05:58.382Z,18.97
2023-04-19T15:12:21.189Z,18.78
2023-04-19T15:18:41.202Z,18.9
2023-04-19T15:25:04.184Z,18.84
2023-04-19T15:31:24.230Z,18.72
2023-04-19T15:37:47.478Z,18.65
2023-04-19T15:44:07.203Z,18.58
2023-04-19T15:50:30.419Z,18.57
2023-04-19T15:56:50.224Z,18.46
2023-04-19T16:03:13.300Z,18.39
2023-04-19T16:09:33.153Z,18.33
2023-04-19T16:15:56.221Z,18.41
2023-04-19T16:22:16.167Z,18.51
2023-04-19T16:28:39.181Z,18.66
2023-04-19T16:34:59.173Z,18.59
2023-04-19T16:41:22.150Z,18.66
2023-04-19T16:47:42.202Z,18.47
2023-04-19T16:54:05.206Z,18.28
2023-04-19T17:00:25.176Z,18.09
2023-04-19T17:06:48.149Z,17.64
2023-04-19T17:13:08.197Z,17.25
2023-04-19T17:19:31.196Z,16.89
2023-04-19T17:25:51.159Z,16.48
2023-04-19T17:32:14.242Z,16.24
2023-04-19T17:38:34.150Z,16.15
2023-04-19T17:44:57.216Z,15.92
2023-04-19T17:51:17.202Z,15.54
2023-04-19T17:57:40.166Z,15.1
2023-04-19T18:04:00.462Z,14.7
2023-04-19T18:10:23.248Z,14.39
2023-04-19T18:16:43.184Z,14.13
2023-04-19T18:23:06.250Z,13.9
2023-04-19T18:29:26.206Z,13.65
2023-04-19T18:35:49.220Z,13.45
2023-04-19T18:42:09.181Z,13.29
2023-04-19T18:48:32.259Z,13.12
2023-04-19T18:54:52.219Z,12.95
2023-04-19T19:01:15.195Z,12.8
2023-04-19T19:07:36.591Z,12.6
2023-04-19T19:13:58.143Z,12.47
2023-04-19T19:20:18.190Z,12.35
2023-04-19T19:26:41.245Z,12.19
2023-04-19T19:33:01.249Z,12.04
2023-04-19T19:39:24.248Z,11.89
2023-04-19T19:45:44.257Z,11.77
2023-04-19T19:52:07.315Z,11.65
2023-04-19T20:04:50.302Z,11.42
2023-04-19T20:21:15.109Z,11.19
2023-04-19T20:27:35.120Z,11.06
2023-04-19T20:33:58.167Z,10.96
2023-04-19T20:40:18.192Z,10.84
2023-04-19T20:46:41.153Z,10.68
2023-04-19T20:53:01.184Z,10.57
2023-04-19T20:59:24.198Z,10.49
2023-04-19T21:05:44.177Z,10.41
2023-04-19T21:12:07.159Z,10.29
2023-04-19T21:18:27.163Z,10.18
2023-04-19T21:24:50.197Z,10.03
2023-04-19T21:31:10.176Z,9.92
2023-04-19T21:37:33.221Z,9.79
2023-04-19T21:43:53.190Z,9.65
2023-04-19T21:50:16.150Z,9.52
2023-04-19T21:56:36.330Z,9.36
2023-04-19T22:20:54.274Z,8.59
2023-04-19T22:27:14.171Z,8.41
2023-04-19T22:33:37.168Z,8.19
2023-04-19T22:39:57.211Z,8
2023-04-19T22:46:20.208Z,7.88
2023-04-19T22:52:40.260Z,7.71
2023-04-19T22:59:03.256Z,7.52
2023-04-19T23:05:23.236Z,7.31
2023-04-19T23:11:46.214Z,7.16
2023-04-19T23:18:06.294Z,7.09
2023-04-19T23:24:29.175Z,7.01
2023-04-19T23:30:49.221Z,6.91
2023-04-19T23:37:12.224Z,6.79
2023-04-19T23:43:32.306Z,6.74
2023-04-19T23:49:55.194Z,6.68
2023-04-19T23:56:15.467Z,6.71
